Time;durP1;ratioP1;P1;durP2;ratioP2;P2;SDS_P1;SDS_P2;PMS_P1;PMS_P2;Temp;Humidity;BMP_temperature;BMP_pressure;BME280_temperature;BME280_humidity;BME280_pressure;Samples;Min_cycle;Max_cycle;Signal;HPM_P1;HPM_P2
2022/04/28 00:00:24;;;;;;;7.70;2.85;;;8.10;98.50;;;;;;5112680;27;20042;-60
2022/04/28 00:02:50;;;;;;;9.80;3.25;;;8.00;98.50;;;;;;5099882;27;20503;-60
2022/04/28 00:05:17;;;;;;;9.32;3.63;;;8.00;98.50;;;;;;5093391;27;20901;-58
2022/04/28 00:07:43;;;;;;;11.55;3.60;;;8.00;98.50;;;;;;5107970;27;20623;-60
2022/04/28 00:10:10;;;;;;;9.50;3.30;;;8.00;98.60;;;;;;5097074;27;20150;-61
2022/04/28 00:12:37;;;;;;;10.77;3.38;;;8.00;98.70;;;;;;5101102;27;20070;-60
2022/04/28 00:15:04;;;;;;;13.73;4.50;;;8.00;98.80;;;;;;5111353;27;20127;-60
2022/04/28 00:17:30;;;;;;;14.50;4.32;;;8.00;98.80;;;;;;5108966;27;20497;-58
2022/04/28 00:19:56;;;;;;;13.68;4.47;;;8.00;98.90;;;;;;5109812;27;20065;-60
2022/04/28 00:22:24;;;;;;;7.20;2.90;;;8.00;98.90;;;;;;5111624;27;20553;-60
2022/04/28 00:24:50;;;;;;;10.13;3.08;;;8.00;98.80;;;;;;5113762;27;20050;-61
2022/04/28 00:27:16;;;;;;;10.95;3.17;;;8.00;98.60;;;;;;5114390;27;20130;-60
2022/04/28 00:29:42;;;;;;;10.75;3.20;;;8.00;98.60;;;;;;5093145;27;20472;-60
2022/04/28 00:32:09;;;;;;;9.50;3.38;;;8.00;98.60;;;;;;5102049;27;20039;-63
2022/04/28 00:34:35;;;;;;;9.45;3.05;;;8.00;98.70;;;;;;5110297;27;20122;-59
2022/04/28 00:37:01;;;;;;;11.80;4.15;;;8.00;98.90;;;;;;5114729;27;20088;-59
2022/04/28 00:39:27;;;;;;;12.13;3.92;;;8.00;99.00;;;;;;5111607;27;20043;-60
2022/04/28 00:41:53;;;;;;;12.40;3.95;;;8.00;99.20;;;;;;5108585;27;20063;-61
2022/04/28 00:44:19;;;;;;;10.73;4.22;;;7.90;99.40;;;;;;5096897;27;20078;-61
2022/04/28 00:46:45;;;;;;;10.55;4.65;;;8.00;99.80;;;;;;5094108;27;20051;-60
2022/04/28 00:51:56;;;;;;;9.82;4.32;;;8.00;99.90;;;;;;5111560;27;20481;-56
2022/04/28 00:54:23;;;;;;;10.32;4.68;;;8.00;99.90;;;;;;5115250;27;20529;-60
2022/04/28 00:56:49;;;;;;;14.57;4.45;;;7.90;99.90;;;;;;5094828;27;20047;-60
2022/04/28 00:59:17;;;;;;;9.52;4.80;;;7.90;99.90;;;;;;5112137;27;20146;-60
2022/04/28 01:01:43;;;;;;;10.57;4.28;;;7.90;99.90;;;;;;5110285;27;20086;-60
2022/04/28 01:04:09;;;;;;;10.55;4.28;;;7.90;99.90;;;;;;5098084;27;20075;-58
2022/04/28 01:06:35;;;;;;;11.73;4.65;;;7.90;99.90;;;;;;5095604;27;20103;-60
2022/04/28 01:09:01;;;;;;;11.70;4.78;;;7.90;99.90;;;;;;5110672;27;20401;-60
2022/04/28 01:11:28;;;;;;;14.45;4.60;;;7.90;99.90;;;;;;5110502;27;20035;-60
2022/04/28 01:13:54;;;;;;;9.68;4.93;;;7.90;99.90;;;;;;5084435;27;20070;-60
2022/04/28 01:16:20;;;;;;;12.48;5.22;;;7.90;99.90;;;;;;5087020;27;20082;-59
2022/04/28 01:18:47;;;;;;;13.48;4.57;;;7.90;99.90;;;;;;5095040;27;20581;-60
2022/04/28 01:21:13;;;;;;;13.80;4.00;;;7.90;99.90;;;;;;5079003;27;20051;-58
2022/04/28 01:23:39;;;;;;;7.90;3.60;;;7.90;99.90;;;;;;5109777;27;20507;-60
2022/04/28 01:26:05;;;;;;;9.55;3.60;;;7.90;99.90;;;;;;5108112;27;20064;-60
2022/04/28 01:28:33;;;;;;;10.25;3.47;;;7.90;99.90;;;;;;5109905;27;20047;-59
2022/04/28 01:31:00;;;;;;;9.65;3.38;;;7.90;99.90;;;;;;5090961;27;20695;-60
2022/04/28 01:33:26;;;;;;;8.93;3.67;;;7.90;99.90;;;;;;5091041;27;20071;-60
2022/04/28 01:35:52;;;;;;;9.40;3.60;;;7.90;99.90;;;;;;5110166;27;20040;-60
2022/04/28 01:38:18;;;;;;;9.73;3.53;;;8.00;99.90;;;;;;5107180;27;20052;-61
2022/04/28 01:40:45;;;;;;;10.52;3.50;;;8.00;99.90;;;;;;5109717;27;20047;-60
2022/04/28 01:43:11;;;;;;;10.45;3.83;;;8.00;99.90;;;;;;5109795;27;20991;-59
2022/04/28 01:45:37;;;;;;;8.68;4.18;;;8.00;99.90;;;;;;5110558;27;20048;-58
2022/04/28 01:48:03;;;;;;;8.20;3.78;;;8.00;99.90;;;;;;5110354;27;20516;-60
2022/04/28 01:50:29;;;;;;;8.95;4.22;;;7.90;99.90;;;;;;5096581;27;20553;-60
2022/04/28 01:55:40;;;;;;;9.65;4.40;;;7.90;99.90;;;;;;5108905;27;20047;-60
2022/04/28 01:58:06;;;;;;;11.32;5.03;;;8.00;99.90;;;;;;5106271;27;20085;-60
2022/04/28 02:00:33;;;;;;;8.82;4.10;;;7.90;99.90;;;;;;5102481;27;20043;-60
2022/04/28 02:03:00;;;;;;;11.07;4.93;;;7.90;99.90;;;;;;5109631;27;20127;-60
2022/04/28 02:05:26;;;;;;;9.10;4.95;;;7.90;99.90;;;;;;5105236;27;20052;-58
2022/04/28 02:07:53;;;;;;;15.52;5.05;;;7.90;99.90;;;;;;5107332;27;20197;-60
2022/04/28 02:10:19;;;;;;;13.60;5.32;;;7.90;99.90;;;;;;5111863;27;20044;-60
2022/04/28 02:12:45;;;;;;;11.20;5.13;;;7.90;99.90;;;;;;5112389;27;20409;-60
2022/04/28 02:15:11;;;;;;;13.80;5.35;;;7.90;99.90;;;;;;5113184;27;20130;-59
2022/04/28 02:17:39;;;;;;;10.05;5.07;;;7.90;99.90;;;;;;5104448;27;20057;-60
2022/04/28 02:20:07;;;;;;;10.32;5.13;;;7.90;99.90;;;;;;5097779;27;20568;-61
2022/04/28 02:22:35;;;;;;;14.40;6.10;;;7.90;99.90;;;;;;5113139;27;20096;-60
2022/04/28 02:25:02;;;;;;;11.23;4.78;;;8.00;99.90;;;;;;5111516;27;20051;-61
2022/04/28 02:27:28;;;;;;;12.32;4.88;;;7.90;99.90;;;;;;5110601;27;20866;-59
2022/04/28 02:29:55;;;;;;;9.85;4.95;;;7.90;99.90;;;;;;5114949;27;20497;-60
2022/04/28 02:32:21;;;;;;;11.13;4.95;;;7.90;99.90;;;;;;5091675;28;20170;-60
2022/04/28 02:34:47;;;;;;;11.88;4.32;;;7.90;99.90;;;;;;5113254;27;20051;-60
2022/04/28 02:37:14;;;;;;;8.60;4.30;;;7.90;99.90;;;;;;5091844;28;20958;-60
2022/04/28 02:39:40;;;;;;;9.13;5.13;;;7.90;99.90;;;;;;5105444;27;20050;-58
2022/04/28 02:42:06;;;;;;;12.32;4.68;;;7.90;99.90;;;;;;5110712;28;20039;-60
2022/04/28 02:44:32;;;;;;;12.02;5.05;;;7.90;99.90;;;;;;5091186;28;20046;-60
2022/04/28 02:46:58;;;;;;;11.60;5.97;;;7.90;99.90;;;;;;5093112;28;20071;-60
2022/04/28 02:49:25;;;;;;;11.82;5.10;;;7.90;99.90;;;;;;5106492;27;20585;-60
2022/04/28 02:51:50;;;;;;;12.63;5.55;;;7.90;99.90;;;;;;5090418;28;20074;-60
2022/04/28 02:54:17;;;;;;;11.32;5.53;;;7.90;99.90;;;;;;5108929;28;20439;-59
2022/04/28 02:56:43;;;;;;;12.55;5.55;;;7.90;99.90;;;;;;5083170;27;20055;-59
2022/04/28 02:59:09;;;;;;;16.27;6.22;;;7.80;99.90;;;;;;5110375;28;20046;-60
2022/04/28 03:01:35;;;;;;;11.98;4.70;;;7.90;99.90;;;;;;5111666;27;20960;-60
2022/04/28 03:04:02;;;;;;;9.63;4.60;;;7.80;99.90;;;;;;5109790;28;20040;-60
2022/04/28 03:11:57;;;;;;;10.93;5.15;;;7.80;99.90;;;;;;5074972;28;20512;-58
2022/04/28 03:14:24;;;;;;;12.10;5.40;;;7.80;99.90;;;;;;5108473;28;20083;-60
2022/04/28 03:16:50;;;;;;;11.50;5.07;;;7.70;99.90;;;;;;5112163;28;20044;-59
2022/04/28 03:19:16;;;;;;;11.60;5.90;;;7.80;99.90;;;;;;5111640;27;20039;-60
2022/04/28 03:21:43;;;;;;;9.63;5.43;;;7.80;99.90;;;;;;5095911;28;20035;-59
2022/04/28 03:24:10;;;;;;;10.57;5.20;;;7.80;99.90;;;;;;5083751;28;20047;-60
2022/04/28 03:26:38;;;;;;;10.35;5.43;;;7.80;99.90;;;;;;5107175;27;20059;-60
2022/04/28 03:29:05;;;;;;;10.88;5.78;;;7.80;99.90;;;;;;5111356;28;20031;-60
2022/04/28 03:31:31;;;;;;;10.20;5.90;;;7.80;99.90;;;;;;5107678;28;20035;-59
2022/04/28 03:33:57;;;;;;;12.93;5.25;;;7.90;99.90;;;;;;5097976;27;20035;-58
2022/04/28 03:39:08;;;;;;;11.75;5.90;;;7.80;99.90;;;;;;5087068;27;21315;-59
2022/04/28 03:41:34;;;;;;;11.23;4.90;;;7.80;99.90;;;;;;5107668;27;20043;-60
2022/04/28 03:44:00;;;;;;;12.88;4.85;;;7.80;99.90;;;;;;5111545;27;20039;-59
2022/04/28 03:46:26;;;;;;;9.70;5.03;;;7.80;99.90;;;;;;5111389;27;20810;-58
2022/04/28 03:48:52;;;;;;;9.43;5.75;;;7.80;99.90;;;;;;5113392;27;20043;-60
2022/04/28 03:51:18;;;;;;;10.88;4.85;;;7.80;99.90;;;;;;5114082;27;20042;-59
2022/04/28 03:53:44;;;;;;;10.25;5.38;;;7.80;99.90;;;;;;5114586;27;20035;-59
2022/04/28 03:56:10;;;;;;;10.02;5.50;;;7.80;99.90;;;;;;5084428;27;20158;-60
2022/04/28 03:58:36;;;;;;;8.02;5.03;;;7.80;99.90;;;;;;5113409;27;20052;-60
2022/04/28 04:01:02;;;;;;;18.63;5.47;;;7.80;99.90;;;;;;5110057;27;20044;-60
2022/04/28 04:03:28;;;;;;;10.75;5.78;;;7.80;99.90;;;;;;5096343;27;20058;-60
2022/04/28 04:05:54;;;;;;;11.07;5.15;;;7.80;99.90;;;;;;5111658;27;20507;-60
2022/04/28 04:08:20;;;;;;;9.70;4.93;;;7.80;99.90;;;;;;5098002;27;20039;-58
2022/04/28 04:10:46;;;;;;;12.73;6.28;;;7.80;99.90;;;;;;5094005;27;20165;-60
2022/04/28 04:13:12;;;;;;;13.63;5.53;;;7.80;99.90;;;;;;5112569;27;20066;-59
2022/04/28 04:15:38;;;;;;;15.77;6.03;;;7.80;99.90;;;;;;5113253;27;20044;-60
2022/04/28 04:18:04;;;;;;;13.23;5.57;;;7.80;99.90;;;;;;5112946;27;20142;-60
2022/04/28 04:20:30;;;;;;;10.52;5.55;;;7.80;99.90;;;;;;5089812;27;20058;-58
2022/04/28 04:22:56;;;;;;;9.70;5.57;;;7.80;99.90;;;;;;5111356;27;20047;-60
2022/04/28 04:25:23;;;;;;;13.52;5.68;;;7.80;99.90;;;;;;5114851;27;20052;-60
2022/04/28 04:27:48;;;;;;;13.73;5.53;;;7.80;99.90;;;;;;5078317;27;20457;-60
2022/04/28 04:32:59;;;;;;;17.75;5.70;;;7.90;99.90;;;;;;5093081;27;20051;-60
2022/04/28 04:35:26;;;;;;;12.98;5.65;;;7.90;99.90;;;;;;5112064;27;20054;-58
2022/04/28 04:37:55;;;;;;;13.98;6.07;;;7.90;99.90;;;;;;5101552;27;20136;-60
2022/04/28 04:40:21;;;;;;;15.75;5.95;;;7.90;99.90;;;;;;5091996;27;20086;-60
2022/04/28 04:42:48;;;;;;;13.80;5.97;;;7.90;99.90;;;;;;5111925;27;20391;-60
2022/04/28 04:45:14;;;;;;;14.70;5.25;;;7.90;99.90;;;;;;5110630;27;20051;-60
2022/04/28 04:47:40;;;;;;;13.27;5.35;;;7.90;99.90;;;;;;5111315;27;20497;-58
2022/04/28 04:50:08;;;;;;;9.32;5.40;;;7.90;99.90;;;;;;5109411;27;20039;-60
2022/04/28 04:52:34;;;;;;;14.60;5.30;;;7.90;99.90;;;;;;5111392;27;20143;-61
2022/04/28 04:55:01;;;;;;;12.10;4.70;;;7.80;99.90;;;;;;5111483;27;20124;-60
2022/04/28 04:57:27;;;;;;;11.35;4.38;;;7.80;99.90;;;;;;5108822;27;20394;-61
2022/04/28 04:59:54;;;;;;;13.98;4.88;;;7.70;99.90;;;;;;5107044;27;20784;-59
2022/04/28 05:02:20;;;;;;;14.48;4.90;;;7.80;99.90;;;;;;5109526;27;20406;-60
2022/04/28 05:04:46;;;;;;;13.73;4.88;;;7.70;99.90;;;;;;5105955;27;20054;-61
2022/04/28 05:07:12;;;;;;;14.90;4.70;;;7.70;99.90;;;;;;5105379;27;20047;-59
2022/04/28 05:09:39;;;;;;;10.93;4.32;;;7.70;99.90;;;;;;5112651;27;20039;-61
2022/04/28 05:12:06;;;;;;;12.85;4.35;;;7.70;99.90;;;;;;5109345;27;20345;-61
2022/04/28 05:14:33;;;;;;;15.07;4.72;;;7.70;99.90;;;;;;5097874;27;20041;-60
2022/04/28 05:17:00;;;;;;;14.02;4.68;;;7.60;99.90;;;;;;5108726;27;20157;-60
2022/04/28 05:19:27;;;;;;;13.43;4.90;;;7.60;99.90;;;;;;5107481;27;20054;-59
2022/04/28 05:21:55;;;;;;;13.85;4.13;;;7.60;99.90;;;;;;5100332;27;20121;-61
2022/04/28 05:24:21;;;;;;;12.15;4.60;;;7.60;99.90;;;;;;5091710;27;20071;-61
2022/04/28 05:26:48;;;;;;;10.15;4.28;;;7.60;99.90;;;;;;5106584;27;20486;-58
2022/04/28 05:29:14;;;;;;;11.73;4.28;;;7.60;99.90;;;;;;5110611;27;20043;-60
2022/04/28 05:31:40;;;;;;;13.02;3.65;;;7.60;99.90;;;;;;5113027;27;20059;-58
2022/04/28 05:34:06;;;;;;;12.63;3.85;;;7.70;99.90;;;;;;5111910;27;20043;-61
2022/04/28 05:36:32;;;;;;;15.38;4.40;;;7.60;99.90;;;;;;5113266;27;20047;-60
2022/04/28 05:38:58;;;;;;;10.10;3.85;;;7.60;99.90;;;;;;5097339;27;20052;-61
2022/04/28 05:41:26;;;;;;;10.50;3.95;;;7.60;99.90;;;;;;5110122;27;20118;-61
2022/04/28 05:46:37;;;;;;;10.52;4.32;;;7.60;99.90;;;;;;5105242;27;20826;-61
2022/04/28 05:49:07;;;;;;;11.10;3.97;;;7.50;99.90;;;;;;5109771;27;20036;-64
2022/04/28 05:51:33;;;;;;;12.00;4.30;;;7.60;99.90;;;;;;5114490;27;20068;-59
2022/04/28 05:53:59;;;;;;;12.80;4.05;;;7.60;99.90;;;;;;5111101;27;20523;-57
2022/04/28 05:56:26;;;;;;;9.98;4.10;;;7.60;99.90;;;;;;5086187;27;20054;-61
2022/04/28 05:58:52;;;;;;;9.20;4.10;;;7.60;99.90;;;;;;5102923;27;20047;-61
2022/04/28 06:01:18;;;;;;;12.77;4.65;;;7.60;99.90;;;;;;5086232;28;20050;-61
2022/04/28 06:03:44;;;;;;;10.98;4.13;;;7.60;99.90;;;;;;5104105;27;20050;-60
2022/04/28 06:06:10;;;;;;;9.93;3.97;;;7.70;99.90;;;;;;5091015;27;20064;-60
2022/04/28 06:08:38;;;;;;;10.23;3.55;;;7.70;99.90;;;;;;5110488;27;20036;-60
2022/04/28 06:11:05;;;;;;;9.85;4.72;;;7.70;99.90;;;;;;5110074;27;20043;-60
2022/04/28 06:13:31;;;;;;;12.13;3.90;;;7.70;99.90;;;;;;5086031;27;20082;-60
2022/04/28 06:15:58;;;;;;;12.10;3.72;;;7.80;99.90;;;;;;5111316;27;20157;-61
2022/04/28 06:18:24;;;;;;;10.38;4.05;;;7.90;99.90;;;;;;5085843;27;20059;-59
2022/04/28 06:20:50;;;;;;;13.77;4.25;;;8.00;99.90;;;;;;5087321;28;20040;-59
2022/04/28 06:23:16;;;;;;;13.30;3.85;;;8.10;99.90;;;;;;5069368;28;20092;-61
2022/04/28 06:25:42;;;;;;;15.93;3.90;;;8.10;99.90;;;;;;5088808;28;20062;-60
2022/04/28 06:28:13;;;;;;;12.90;3.83;;;8.30;99.90;;;;;;5085894;28;20043;-60
2022/04/28 06:30:40;;;;;;;16.65;3.40;;;8.40;99.90;;;;;;5081480;28;20046;-59
2022/04/28 06:33:08;;;;;;;11.45;4.18;;;8.50;99.90;;;;;;5060121;28;20044;-58
2022/04/28 06:35:34;;;;;;;10.02;3.53;;;8.50;99.90;;;;;;5030970;28;20476;-62
2022/04/28 06:38:02;;;;;;;12.77;3.05;;;8.60;99.90;;;;;;5078128;28;20060;-61
2022/04/28 06:40:28;;;;;;;8.57;2.90;;;8.70;99.90;;;;;;5078163;28;20043;-59
2022/04/28 06:42:54;;;;;;;9.45;3.00;;;8.80;99.90;;;;;;5081535;28;20083;-61
2022/04/28 06:45:20;;;;;;;11.57;3.17;;;8.90;99.90;;;;;;5051203;28;20568;-61
2022/04/28 06:47:46;;;;;;;8.35;2.85;;;9.00;99.90;;;;;;5085810;28;20040;-61
2022/04/28 06:50:12;;;;;;;8.63;2.85;;;9.20;99.90;;;;;;5083121;28;20051;-60
2022/04/28 06:52:39;;;;;;;10.68;2.75;;;9.30;99.90;;;;;;5089728;28;20044;-60
2022/04/28 06:55:07;;;;;;;13.90;2.72;;;9.40;99.90;;;;;;5089855;28;20393;-60
2022/04/28 06:57:34;;;;;;;8.88;2.50;;;9.70;99.90;;;;;;5076964;28;20056;-60
2022/04/28 07:00:00;;;;;;;9.63;2.38;;;9.80;99.90;;;;;;5091123;28;20497;-61
2022/04/28 07:02:27;;;;;;;15.43;2.70;;;10.00;99.90;;;;;;5052680;28;20048;-58
2022/04/28 07:04:53;;;;;;;8.20;2.47;;;10.00;99.90;;;;;;5086205;28;20050;-61
2022/04/28 07:07:19;;;;;;;15.02;2.65;;;9.90;99.90;;;;;;5085484;28;20044;-61
2022/04/28 07:09:45;;;;;;;9.32;2.20;;;9.80;99.90;;;;;;5075530;28;20489;-59
2022/04/28 07:12:11;;;;;;;7.18;2.28;;;9.80;99.90;;;;;;5092307;27;20047;-61
2022/04/28 07:14:37;;;;;;;8.15;2.58;;;9.80;99.90;;;;;;5087277;27;20055;-60
2022/04/28 07:17:04;;;;;;;8.32;2.22;;;9.80;99.90;;;;;;5089583;28;20734;-60
2022/04/28 07:19:30;;;;;;;10.82;2.28;;;9.90;99.90;;;;;;5080615;28;20631;-60
2022/04/28 07:21:56;;;;;;;9.70;2.25;;;9.90;99.90;;;;;;5085707;28;20397;-60
2022/04/28 07:24:22;;;;;;;12.98;2.45;;;9.90;99.90;;;;;;5072774;28;20047;-61
2022/04/28 07:26:48;;;;;;;7.30;2.00;;;9.90;99.90;;;;;;5087935;28;20056;-60
2022/04/28 07:29:13;;;;;;;5.10;1.55;;;10.00;99.90;;;;;;5064096;28;20050;-61
2022/04/28 07:31:39;;;;;;;11.40;2.35;;;10.20;99.90;;;;;;5094663;28;20032;-61
2022/04/28 07:34:05;;;;;;;8.23;2.10;;;10.20;99.90;;;;;;5075355;28;20055;-61
2022/04/28 07:36:31;;;;;;;12.40;2.25;;;10.30;99.90;;;;;;5089890;27;20078;-58
2022/04/28 07:38:58;;;;;;;7.32;2.10;;;10.40;99.90;;;;;;5070287;28;20048;-61
2022/04/28 07:41:24;;;;;;;6.47;2.17;;;10.50;99.90;;;;;;5088213;28;20081;-61
2022/04/28 07:43:50;;;;;;;9.40;2.22;;;10.60;99.90;;;;;;5086504;28;20413;-59
2022/04/28 07:46:16;;;;;;;14.65;2.65;;;10.80;99.90;;;;;;5090601;28;20060;-59
2022/04/28 07:48:42;;;;;;;8.88;2.13;;;10.80;99.90;;;;;;5091088;28;20055;-61
2022/04/28 07:51:08;;;;;;;12.02;2.35;;;10.90;99.90;;;;;;5089946;28;20047;-59
2022/04/28 07:53:34;;;;;;;10.05;2.10;;;11.00;99.90;;;;;;5090618;28;20035;-61
2022/04/28 07:56:10;;;;;;;7.88;2.00;;;11.10;99.80;;;;;;5078014;28;20048;-61
2022/04/28 07:58:37;;;;;;;13.18;2.33;;;11.10;99.50;;;;;;5094267;28;20044;-61
2022/04/28 08:01:06;;;;;;;11.48;2.10;;;11.20;99.40;;;;;;5090158;27;20071;-61
2022/04/28 08:03:32;;;;;;;8.95;2.40;;;11.20;99.00;;;;;;5088870;27;20048;-60
2022/04/28 08:05:59;;;;;;;8.15;2.15;;;11.20;99.10;;;;;;5086589;28;20138;-60
2022/04/28 08:08:25;;;;;;;10.38;2.20;;;11.20;99.00;;;;;;5081043;28;20111;-61
2022/04/28 08:10:51;;;;;;;8.13;2.30;;;11.10;99.00;;;;;;5079226;28;20107;-59
2022/04/28 08:13:17;;;;;;;13.88;2.20;;;11.00;99.00;;;;;;5085374;28;20414;-61
2022/04/28 08:15:44;;;;;;;11.40;2.33;;;11.10;99.10;;;;;;5086744;28;20062;-61
2022/04/28 08:18:10;;;;;;;10.88;2.35;;;11.20;99.20;;;;;;5084105;28;20068;-61
2022/04/28 08:20:40;;;;;;;12.13;2.70;;;11.30;99.10;;;;;;5079575;28;20044;-61
2022/04/28 08:23:05;;;;;;;10.25;2.95;;;11.30;99.30;;;;;;5062085;28;20056;-59
2022/04/28 08:25:32;;;;;;;12.63;3.25;;;11.40;99.40;;;;;;5072509;28;20142;-61
2022/04/28 08:27:57;;;;;;;14.43;3.28;;;11.50;99.30;;;;;;5088268;28;20039;-59
2022/04/28 08:30:24;;;;;;;9.77;3.10;;;11.50;99.00;;;;;;5085586;28;20035;-60
2022/04/28 08:32:50;;;;;;;13.90;3.72;;;11.60;98.60;;;;;;5088910;28;20793;-59
2022/04/28 08:35:16;;;;;;;18.65;3.70;;;11.60;98.60;;;;;;5083088;28;20039;-60
2022/04/28 08:37:42;;;;;;;10.32;3.60;;;11.60;98.20;;;;;;5085034;28;20124;-61
2022/04/28 08:40:08;;;;;;;12.57;4.05;;;11.60;98.10;;;;;;5084052;28;20047;-59
2022/04/28 08:42:40;;;;;;;9.45;3.83;;;11.80;98.40;;;;;;5084109;28;20780;-61
2022/04/28 08:45:06;;;;;;;11.50;3.80;;;11.80;98.30;;;;;;5087069;28;20085;-60
2022/04/28 08:47:33;;;;;;;12.73;3.63;;;11.90;98.10;;;;;;5083427;28;20122;-60
2022/04/28 08:49:58;;;;;;;9.85;3.30;;;11.90;98.10;;;;;;5063149;28;20052;-61
2022/04/28 08:52:25;;;;;;;12.93;3.70;;;11.90;98.10;;;;;;5065704;28;20445;-60
2022/04/28 08:54:55;;;;;;;14.55;3.35;;;11.90;98.00;;;;;;5073383;27;20473;-60
2022/04/28 08:57:24;;;;;;;13.80;3.72;;;11.90;97.60;;;;;;5058843;28;20123;-58
2022/04/28 08:59:55;;;;;;;9.23;3.33;;;11.90;97.40;;;;;;5076538;28;20469;-60
2022/04/28 09:02:29;;;;;;;11.18;3.20;;;11.80;97.40;;;;;;5058729;28;20472;-60
2022/04/28 09:05:07;;;;;;;15.98;3.03;;;11.90;97.80;;;;;;5079758;27;20076;-61
2022/04/28 09:07:38;;;;;;;13.35;3.22;;;12.00;97.40;;;;;;5083119;28;20048;-61
2022/04/28 09:10:24;;;;;;;9.35;3.17;;;11.90;97.30;;;;;;5075785;28;20044;-61
2022/04/28 09:15:54;;;;;;;11.65;3.60;;;11.80;97.30;;;;;;5073854;28;20055;-61
2022/04/28 09:18:21;;;;;;;14.23;3.30;;;11.80;97.40;;;;;;5060110;28;20447;-61
2022/04/28 09:20:48;;;;;;;8.90;3.13;;;11.80;97.50;;;;;;5063465;28;20071;-57
2022/04/28 09:23:16;;;;;;;11.45;3.45;;;11.90;97.40;;;;;;5083377;28;20048;-61
2022/04/28 09:25:43;;;;;;;10.95;3.08;;;11.90;97.20;;;;;;5083538;28;20582;-57
2022/04/28 09:28:10;;;;;;;12.18;3.17;;;11.90;97.10;;;;;;5085222;27;20101;-60
2022/04/28 09:30:49;;;;;;;15.52;3.13;;;11.90;97.10;;;;;;5073100;28;20043;-61
2022/04/28 09:33:18;;;;;;;13.02;3.15;;;11.90;97.20;;;;;;5088611;28;20051;-61
2022/04/28 09:35:48;;;;;;;10.55;3.30;;;11.90;97.10;;;;;;5090780;28;20044;-61
2022/04/28 09:38:14;;;;;;;16.20;3.55;;;11.90;97.00;;;;;;5090468;28;20114;-61
2022/04/28 09:43:30;;;;;;;15.80;3.47;;;11.90;97.00;;;;;;5090178;28;20062;-61
2022/04/28 09:45:57;;;;;;;12.60;3.47;;;11.90;97.00;;;;;;5086148;28;20043;-60
2022/04/28 09:48:25;;;;;;;11.80;3.45;;;11.90;97.00;;;;;;5090663;28;20040;-59
2022/04/28 09:50:51;;;;;;;14.88;3.33;;;11.90;97.10;;;;;;5088934;28;20071;-61
2022/04/28 09:53:20;;;;;;;10.07;3.00;;;11.90;97.10;;;;;;5079435;28;20119;-60
2022/04/28 09:55:50;;;;;;;13.98;3.75;;;11.90;97.00;;;;;;5089089;28;20442;-59
2022/04/28 09:58:17;;;;;;;12.68;3.10;;;11.90;96.90;;;;;;5072656;28;20055;-60
2022/04/28 10:00:43;;;;;;;10.13;2.72;;;11.90;96.70;;;;;;5060214;28;20083;-60
2022/04/28 10:03:11;;;;;;;11.57;3.20;;;11.90;96.60;;;;;;5083375;28;20044;-59
2022/04/28 10:05:37;;;;;;;9.73;2.90;;;12.00;96.30;;;;;;5088236;28;20512;-60
2022/04/28 10:08:05;;;;;;;15.27;3.63;;;12.00;96.20;;;;;;5092350;28;20591;-60
2022/04/28 10:10:31;;;;;;;13.15;3.38;;;12.10;96.40;;;;;;5076326;28;20055;-61
2022/04/28 10:12:59;;;;;;;15.52;2.97;;;12.20;96.70;;;;;;5071879;28;20105;-61
2022/04/28 10:15:28;;;;;;;10.65;2.63;;;12.30;96.70;;;;;;5072271;28;20052;-61
2022/04/28 10:17:59;;;;;;;11.40;3.13;;;12.40;96.40;;;;;;5092860;28;20678;-60
2022/04/28 10:20:30;;;;;;;11.93;3.05;;;12.40;96.00;;;;;;5091401;28;20053;-61
2022/04/28 10:23:01;;;;;;;15.02;2.60;;;12.40;95.90;;;;;;5077385;28;20130;-61
2022/04/28 10:34:15;;;;;;;13.88;2.95;;;12.60;95.70;;;;;;5089677;28;20049;-61
2022/04/28 10:36:59;;;;;;;11.43;2.70;;;12.50;95.50;;;;;;5079692;28;20046;-61
2022/04/28 10:39:43;;;;;;;11.23;2.90;;;12.50;95.70;;;;;;5091831;28;20078;-61
2022/04/28 10:42:31;;;;;;;8.52;2.28;;;12.50;95.90;;;;;;5093833;28;20044;-59
2022/04/28 10:44:58;;;;;;;12.93;2.80;;;12.60;95.50;;;;;;5068474;28;20097;-59
2022/04/28 10:47:39;;;;;;;10.57;2.65;;;12.60;95.20;;;;;;5073880;28;20054;-60
2022/04/28 10:50:22;;;;;;;13.63;2.97;;;12.70;94.80;;;;;;5083740;28;20060;-58
2022/04/28 10:52:55;;;;;;;10.43;3.08;;;12.70;94.30;;;;;;5049658;28;20035;-61
2022/04/28 10:55:23;;;;;;;11.02;2.97;;;12.60;94.60;;;;;;5091308;28;20047;-61
2022/04/28 10:57:50;;;;;;;12.48;2.85;;;12.50;94.70;;;;;;5094080;28;20638;-58
2022/04/28 11:00:38;;;;;;;9.10;2.63;;;12.60;95.00;;;;;;5070044;28;20040;-59
2022/04/28 11:03:04;;;;;;;13.45;2.80;;;12.70;94.70;;;;;;5075859;28;20527;-60
2022/04/28 11:05:35;;;;;;;12.32;3.33;;;12.90;94.50;;;;;;5068983;28;20035;-60
2022/04/28 11:08:01;;;;;;;8.77;2.85;;;13.20;94.00;;;;;;5088699;28;20556;-60
2022/04/28 11:10:28;;;;;;;11.60;3.17;;;13.60;93.70;;;;;;5090946;28;20088;-61
2022/04/28 11:12:54;;;;;;;15.13;2.90;;;13.80;93.30;;;;;;5094054;28;20040;-61
2022/04/28 11:15:21;;;;;;;16.10;3.33;;;13.70;92.80;;;;;;5069687;28;20044;-61
2022/04/28 11:17:47;;;;;;;8.70;2.45;;;13.60;92.40;;;;;;5083128;28;20040;-61
2022/04/28 11:20:21;;;;;;;16.08;2.88;;;13.50;92.40;;;;;;5064766;28;20048;-57
2022/04/28 11:22:52;;;;;;;13.18;2.60;;;13.40;92.30;;;;;;5085138;28;20370;-61
2022/04/28 11:25:20;;;;;;;10.13;2.63;;;13.20;92.50;;;;;;5088718;28;20024;-61
2022/04/28 11:27:48;;;;;;;13.63;3.35;;;13.10;92.80;;;;;;5070964;28;21317;-60
2022/04/28 11:30:17;;;;;;;9.40;2.80;;;13.10;92.80;;;;;;5086712;28;20043;-61
2022/04/28 11:32:52;;;;;;;13.48;2.78;;;13.00;92.40;;;;;;5063675;28;20047;-60
2022/04/28 11:35:19;;;;;;;8.93;2.50;;;12.90;92.00;;;;;;5085036;28;20501;-59
2022/04/28 11:37:46;;;;;;;10.82;2.80;;;12.90;92.20;;;;;;5086934;28;20608;-61
2022/04/28 11:40:13;;;;;;;10.00;2.75;;;12.90;92.50;;;;;;5085531;28;20047;-61
2022/04/28 11:42:41;;;;;;;12.77;2.15;;;12.90;92.60;;;;;;5070316;28;20504;-60
2022/04/28 11:45:08;;;;;;;14.23;2.90;;;13.00;92.60;;;;;;5073355;28;20097;-60
2022/04/28 11:47:45;;;;;;;10.38;2.70;;;13.00;92.60;;;;;;5087379;28;20044;-59
2022/04/28 11:50:35;;;;;;;9.73;2.70;;;12.90;92.50;;;;;;5072642;28;20040;-61
2022/04/28 11:53:09;;;;;;;9.18;2.63;;;12.90;93.10;;;;;;5094080;28;20032;-61
2022/04/28 11:55:38;;;;;;;8.98;2.80;;;13.00;93.20;;;;;;5077728;28;20048;-61
2022/04/28 11:58:06;;;;;;;13.23;2.70;;;13.20;92.90;;;;;;5095903;28;20605;-61
2022/04/28 12:00:42;;;;;;;7.47;2.45;;;13.30;92.00;;;;;;5096940;28;20116;-61
2022/04/28 12:03:09;;;;;;;12.63;2.70;;;13.20;91.20;;;;;;5095673;28;20122;-61
2022/04/28 12:05:35;;;;;;;10.93;3.13;;;13.20;91.20;;;;;;5097708;28;20052;-61
2022/04/28 12:08:02;;;;;;;9.13;2.70;;;13.20;91.80;;;;;;5095699;28;20153;-61
2022/04/28 12:16:14;;;;;;;13.15;2.72;;;13.40;91.20;;;;;;5095081;28;20514;-61
2022/04/28 12:21:34;;;;;;;13.57;2.40;;;13.40;91.60;;;;;;5080335;28;20084;-61
2022/04/28 12:24:01;;;;;;;7.53;2.75;;;13.50;91.60;;;;;;5093348;28;20043;-61
2022/04/28 12:26:34;;;;;;;10.15;2.30;;;13.70;91.50;;;;;;5077279;28;20498;-60
2022/04/28 12:29:08;;;;;;;6.07;2.22;;;13.60;91.10;;;;;;5093636;28;20401;-60
2022/04/28 12:31:35;;;;;;;11.82;2.70;;;13.80;91.40;;;;;;5068325;28;20048;-60
2022/04/28 12:34:22;;;;;;;11.00;2.55;;;14.00;90.80;;;;;;5094380;28;20044;-61
2022/04/28 12:36:54;;;;;;;7.72;2.30;;;14.20;90.00;;;;;;5085550;28;20056;-61
2022/04/28 12:39:21;;;;;;;6.95;2.55;;;14.20;89.60;;;;;;5094381;28;20500;-61
2022/04/28 12:41:51;;;;;;;11.48;2.50;;;14.00;88.20;;;;;;5093883;28;20039;-61
2022/04/28 12:44:17;;;;;;;13.25;3.03;;;13.80;88.20;;;;;;5096045;28;20047;-61
2022/04/28 12:46:45;;;;;;;12.32;2.90;;;13.70;89.30;;;;;;5091967;28;20043;-61
2022/04/28 12:49:13;;;;;;;9.35;2.22;;;13.60;89.70;;;;;;5094438;28;20107;-61
2022/04/28 12:51:44;;;;;;;9.00;2.47;;;13.60;89.80;;;;;;5095515;28;20036;-61
2022/04/28 12:54:32;;;;;;;13.60;2.67;;;13.60;90.20;;;;;;5095225;28;20058;-61
2022/04/28 12:57:03;;;;;;;9.55;2.60;;;13.70;90.40;;;;;;5092605;28;20044;-61
2022/04/28 12:59:35;;;;;;;7.13;2.72;;;14.00;90.30;;;;;;5094357;28;20190;-61
2022/04/28 13:02:01;;;;;;;10.73;2.63;;;14.00;90.30;;;;;;5075417;28;20118;-61
2022/04/28 13:04:27;;;;;;;13.45;2.97;;;14.00;89.50;;;;;;5093013;28;20048;-61
2022/04/28 13:06:54;;;;;;;7.97;2.72;;;14.00;89.00;;;;;;5092223;28;20047;-61
2022/04/28 13:09:21;;;;;;;13.57;2.55;;;14.30;89.60;;;;;;5061412;28;20150;-61
2022/04/28 13:11:49;;;;;;;14.77;3.05;;;14.50;88.60;;;;;;5094314;28;20394;-61
2022/04/28 13:14:20;;;;;;;9.85;2.45;;;14.60;86.80;;;;;;5066855;28;20060;-57
2022/04/28 13:16:47;;;;;;;8.15;2.17;;;14.50;86.30;;;;;;5095720;28;20043;-60
2022/04/28 13:19:14;;;;;;;7.80;2.63;;;14.40;86.20;;;;;;5093322;28;20891;-61
2022/04/28 13:21:41;;;;;;;8.40;2.55;;;14.40;86.30;;;;;;5092657;28;20079;-61
2022/04/28 13:24:08;;;;;;;7.35;2.47;;;14.70;87.30;;;;;;5095301;28;20047;-61
2022/04/28 13:26:35;;;;;;;9.27;2.42;;;15.00;86.90;;;;;;5092357;28;20494;-61
2022/04/28 13:29:02;;;;;;;12.27;2.22;;;15.00;85.40;;;;;;5094261;28;20062;-61